createdAt,value
2018-11-05T00:04:05.948Z,11.50
2018-11-05T00:09:10.719Z,10.25
2018-11-05T00:14:14.506Z,10.50
2018-11-05T00:19:18.012Z,11.75
2018-11-05T00:24:22.840Z,10.25
2018-11-05T00:29:26.966Z,10.50
2018-11-05T00:34:30.530Z,11.25
2018-11-05T00:39:34.180Z,10.80
2018-11-05T00:44:37.798Z,10.00
2018-11-05T00:49:41.314Z,10.00
2018-11-05T00:54:44.774Z,10.50
2018-11-05T00:59:48.706Z,10.25
2018-11-05T01:04:52.615Z,9.00
2018-11-05T01:09:57.243Z,10.20
2018-11-05T01:15:01.575Z,10.00
2018-11-05T01:20:06.823Z,7.60
2018-11-05T01:25:10.968Z,9.20
2018-11-05T01:30:14.884Z,8.60
2018-11-05T01:35:18.428Z,10.00
2018-11-05T01:40:21.924Z,9.20
2018-11-05T01:45:25.526Z,10.00
2018-11-05T01:50:29.022Z,9.00
2018-11-05T01:55:32.570Z,9.25
2018-11-05T02:00:36.510Z,9.00
2018-11-05T02:05:40.485Z,8.80
2018-11-05T02:10:44.557Z,8.80
2018-11-05T02:15:49.434Z,9.80
2018-11-05T02:20:53.044Z,9.20
2018-11-05T02:25:56.506Z,9.00
2018-11-05T02:30:59.981Z,8.80
2018-11-05T02:36:03.427Z,6.25
2018-11-05T02:41:07.192Z,6.25
2018-11-05T02:46:10.678Z,9.00
2018-11-05T02:51:14.155Z,7.00
2018-11-05T02:56:17.600Z,6.50
2018-11-05T03:01:21.034Z,6.00
2018-11-05T03:06:24.456Z,7.00
2018-11-05T03:11:28.227Z,8.00
2018-11-05T03:16:31.693Z,7.40
2018-11-05T03:21:35.139Z,8.00
2018-11-05T03:26:38.573Z,8.00
2018-11-05T03:31:42.060Z,7.50
2018-11-05T03:36:45.505Z,8.50
2018-11-05T03:41:48.973Z,7.80
2018-11-05T03:46:52.845Z,6.50
2018-11-05T03:51:56.285Z,6.00
2018-11-05T03:56:59.741Z,9.00
2018-11-05T04:02:03.187Z,8.00
2018-11-05T04:07:06.618Z,6.60
2018-11-05T04:12:10.069Z,6.40
2018-11-05T04:17:13.518Z,8.00
2018-11-05T04:22:17.099Z,8.00
2018-11-05T04:27:20.567Z,6.00
2018-11-05T04:32:24.034Z,6.20
2018-11-05T04:37:27.489Z,7.00
2018-11-05T04:42:30.910Z,6.00
2018-11-05T04:47:34.415Z,7.00
2018-11-05T04:52:38.063Z,8.40
2018-11-05T04:57:41.523Z,8.75
2018-11-05T05:02:45.024Z,9.25
2018-11-05T05:07:48.511Z,10.25
2018-11-05T05:12:51.998Z,10.00
2018-11-05T05:17:55.440Z,9.25
2018-11-05T05:22:59.002Z,9.20
2018-11-05T05:28:02.364Z,10.00
2018-11-05T05:33:06.032Z,9.00
2018-11-05T05:38:09.452Z,9.50
2018-11-05T05:43:12.907Z,10.40
2018-11-05T05:48:16.362Z,11.00
2018-11-05T05:53:19.828Z,9.00
2018-11-05T05:58:23.304Z,9.40
2018-11-05T06:03:26.786Z,10.00
2018-11-05T06:08:30.251Z,10.50
2018-11-05T06:13:33.746Z,10.25
2018-11-05T06:18:37.198Z,9.00
2018-11-05T06:23:40.663Z,9.00
2018-11-05T06:28:44.200Z,9.60
2018-11-05T06:33:47.584Z,10.00
2018-11-05T06:38:51.083Z,9.60
2018-11-05T06:43:54.522Z,10.00
2018-11-05T06:48:58.175Z,9.00
2018-11-05T06:54:01.679Z,10.50
2018-11-05T06:59:05.184Z,10.00
2018-11-05T07:04:08.648Z,8.25
2018-11-05T07:09:12.665Z,10.00
2018-11-05T07:14:16.114Z,10.00
2018-11-05T07:19:19.813Z,9.75
2018-11-05T07:24:23.159Z,10.25
2018-11-05T07:29:26.636Z,10.00
2018-11-05T07:34:30.170Z,8.25
2018-11-05T07:39:33.711Z,22.25
2018-11-05T07:44:37.258Z,28.80
2018-11-05T07:49:40.767Z,29.00
2018-11-05T07:54:44.233Z,29.00
2018-11-05T07:59:47.691Z,31.25
2018-11-05T08:04:51.162Z,30.60
2018-11-05T08:09:54.607Z,32.50
2018-11-05T08:14:58.085Z,31.80
2018-11-05T08:20:01.615Z,30.00
2018-11-05T08:25:05.341Z,28.80
2018-11-05T08:30:12.796Z,27.60
2018-11-05T08:35:16.323Z,26.25
2018-11-05T08:40:21.948Z,26.00
2018-11-05T08:45:26.523Z,26.00
2018-11-05T08:50:30.014Z,30.00
2018-11-05T08:55:33.435Z,24.75
2018-11-05T09:00:42.195Z,26.00
2018-11-05T09:05:45.652Z,25.80
2018-11-05T09:10:49.432Z,22.75
2018-11-05T09:15:52.565Z,31.80
2018-11-05T09:20:56.137Z,32.75
2018-11-05T09:26:00.221Z,32.00
2018-11-05T09:31:03.683Z,34.00
2018-11-05T09:36:07.130Z,32.75
2018-11-05T09:41:10.558Z,33.20
2018-11-05T09:46:14.019Z,31.00
2018-11-05T09:51:17.459Z,31.25
2018-11-05T09:56:20.938Z,31.00
2018-11-05T10:01:24.395Z,32.50
2018-11-05T10:06:27.880Z,35.00
2018-11-05T10:11:31.323Z,32.75
2018-11-05T10:16:34.766Z,29.80
2018-11-05T10:21:38.243Z,28.50
2018-11-05T10:26:41.687Z,28.00
2018-11-05T10:31:45.133Z,28.50
2018-11-05T10:36:48.583Z,26.00
2018-11-05T10:41:52.022Z,26.00
2018-11-05T10:46:55.512Z,27.00
2018-11-05T10:51:59.129Z,27.20
2018-11-05T10:57:02.490Z,27.00
2018-11-05T11:02:11.251Z,27.00
2018-11-05T11:07:14.707Z,25.75
2018-11-05T11:12:18.186Z,27.00
2018-11-05T11:17:21.635Z,26.00
2018-11-05T11:22:25.094Z,25.00
2018-11-05T11:27:28.583Z,25.50
2018-11-05T11:32:32.098Z,24.80
2018-11-05T11:37:35.562Z,25.50
2018-11-05T11:42:39.915Z,26.40
2018-11-05T11:47:43.348Z,26.00
2018-11-05T11:52:47.075Z,25.40
2018-11-05T11:57:50.375Z,27.25
2018-11-05T12:02:58.396Z,25.50
2018-11-05T12:08:01.838Z,24.75
2018-11-05T12:13:05.365Z,25.75
2018-11-05T12:18:08.793Z,25.75
2018-11-05T12:23:12.254Z,26.00
2018-11-05T12:28:15.707Z,26.25
2018-11-05T12:33:19.170Z,25.80
2018-11-05T12:38:22.715Z,26.00
2018-11-05T12:43:26.387Z,27.00
2018-11-05T12:48:29.825Z,26.40
2018-11-05T12:53:33.279Z,26.50
2018-11-05T12:58:36.739Z,26.00
2018-11-05T13:03:40.180Z,26.00
2018-11-05T13:08:43.879Z,23.00
2018-11-05T13:13:47.315Z,23.00
2018-11-05T13:18:50.823Z,23.00
2018-11-05T13:23:54.311Z,24.00
2018-11-05T13:28:57.792Z,23.00
2018-11-05T13:34:01.240Z,23.00
2018-11-05T13:39:06.385Z,22.75
2018-11-05T13:44:09.826Z,24.20
2018-11-05T13:49:13.384Z,22.20
2018-11-05T13:54:16.913Z,21.25
2018-11-05T13:59:20.330Z,21.50
2018-11-05T14:04:23.783Z,22.00
2018-11-05T14:09:27.271Z,23.00
2018-11-05T14:14:30.764Z,22.00
2018-11-05T14:19:34.271Z,22.50
2018-11-05T14:24:37.763Z,21.25
2018-11-05T14:29:41.711Z,23.00
2018-11-05T14:34:44.778Z,22.25
2018-11-05T14:39:48.254Z,22.75
2018-11-05T14:44:51.755Z,23.50
2018-11-05T14:49:55.314Z,21.60
2018-11-05T14:54:58.805Z,23.00
2018-11-05T15:00:02.386Z,22.25
2018-11-05T15:05:07.242Z,22.60
2018-11-05T15:10:17.383Z,22.40
2018-11-05T15:15:21.514Z,22.00
2018-11-05T15:20:26.027Z,21.75
2018-11-05T15:25:29.507Z,21.75
2018-11-05T15:30:33.000Z,22.00
2018-11-05T15:35:38.689Z,23.00
2018-11-05T15:40:42.183Z,23.00
2018-11-05T15:45:45.650Z,23.00
2018-11-05T15:50:50.610Z,22.50
2018-11-05T15:55:55.058Z,23.20
2018-11-05T16:01:01.147Z,23.00
2018-11-05T16:06:05.459Z,22.00
2018-11-05T16:11:08.912Z,22.25
2018-11-05T16:16:12.466Z,23.00
2018-11-05T16:21:17.512Z,23.00
2018-11-05T16:26:21.591Z,22.40
2018-11-05T16:31:26.474Z,22.80
2018-11-05T16:36:29.960Z,22.60
2018-11-05T16:41:33.439Z,22.75
2018-11-05T16:46:36.946Z,21.80
2018-11-05T16:51:41.147Z,22.00
2018-11-05T16:56:45.168Z,22.80
2018-11-05T17:01:49.618Z,22.50
2018-11-05T17:06:53.192Z,22.80
2018-11-05T17:11:56.672Z,22.50
2018-11-05T17:17:00.230Z,22.00
2018-11-05T17:22:03.694Z,21.00
2018-11-05T17:27:07.142Z,24.00
2018-11-05T17:32:10.583Z,22.00
2018-11-05T17:37:14.034Z,22.00
2018-11-05T17:42:17.509Z,23.75
2018-11-05T17:47:20.997Z,22.80
2018-11-05T17:52:24.538Z,22.00
2018-11-05T17:57:28.021Z,23.20
2018-11-05T18:02:31.519Z,23.00
2018-11-05T18:07:36.492Z,22.80
2018-11-05T18:12:39.954Z,23.00
2018-11-05T18:17:44.556Z,22.00
2018-11-05T18:22:48.016Z,23.40
2018-11-05T18:27:51.952Z,22.00
2018-11-05T18:32:55.510Z,21.00
2018-11-05T18:37:59.022Z,21.80
2018-11-05T18:43:02.607Z,22.00
2018-11-05T18:48:06.107Z,21.25
2018-11-05T18:53:09.602Z,22.00
2018-11-05T18:58:13.108Z,22.00
2018-11-05T19:03:16.611Z,22.00
2018-11-05T19:08:20.070Z,22.00
2018-11-05T19:13:23.550Z,21.50
2018-11-05T19:18:27.085Z,22.00
2018-11-05T19:23:30.659Z,23.25
2018-11-05T19:28:34.094Z,22.50
2018-11-05T19:33:37.528Z,21.25
2018-11-05T19:38:41.017Z,21.50
2018-11-05T19:43:44.466Z,22.00
2018-11-05T19:48:47.956Z,22.00
2018-11-05T19:53:51.413Z,22.25
2018-11-05T19:58:54.873Z,22.75
2018-11-05T20:03:58.451Z,22.60
2018-11-05T20:09:01.915Z,22.00
2018-11-05T20:14:05.374Z,21.75
2018-11-05T20:19:08.881Z,21.25
2018-11-05T20:24:12.383Z,22.50
2018-11-05T20:29:15.825Z,22.25
2018-11-05T20:34:19.709Z,22.25
2018-11-05T20:39:22.971Z,23.00
2018-11-05T20:44:26.520Z,22.75
2018-11-05T20:49:29.981Z,24.00
2018-11-05T20:54:33.442Z,22.00
2018-11-05T20:59:36.970Z,21.50
2018-11-05T21:04:40.445Z,21.50
2018-11-05T21:09:44.114Z,21.75
2018-11-05T21:14:47.664Z,21.00
2018-11-05T21:19:51.160Z,22.00
2018-11-05T21:24:54.659Z,21.00
2018-11-05T21:29:58.117Z,21.00
2018-11-05T21:35:01.643Z,21.00
2018-11-05T21:40:06.822Z,21.00
2018-11-05T21:45:11.595Z,21.20
2018-11-05T21:50:16.317Z,21.20
2018-11-05T21:55:19.762Z,22.00
2018-11-05T22:00:25.416Z,21.00
2018-11-05T22:05:28.898Z,21.25
2018-11-05T22:10:32.330Z,21.50
2018-11-05T22:15:45.324Z,20.75
2018-11-05T22:20:48.763Z,21.75
2018-11-05T22:25:52.220Z,18.75
2018-11-05T22:30:55.746Z,21.40
2018-11-05T22:35:59.205Z,19.80
2018-11-05T22:41:02.670Z,19.20
2018-11-05T22:46:06.581Z,19.50
2018-11-05T22:51:10.026Z,18.00
2018-11-05T22:56:13.528Z,20.00
2018-11-05T23:01:22.212Z,18.80
2018-11-05T23:06:25.715Z,19.25
2018-11-05T23:11:29.165Z,18.00
2018-11-05T23:16:32.674Z,18.80
2018-11-05T23:21:36.130Z,18.25
2018-11-05T23:26:39.549Z,18.75
2018-11-05T23:31:42.982Z,19.25
2018-11-05T23:36:46.437Z,19.25
2018-11-05T23:41:49.876Z,18.60
2018-11-05T23:46:53.333Z,18.00
2018-11-05T23:51:56.960Z,18.50
2018-11-05T23:57:00.271Z,18.00
